Braunas, Brazil
Current Conditions -  °F | °C
As of 12:00 PM on Wednesday 26 Nov 2014 (Local Time) from SBIP Reporting Station
Broken Clouds Broken Clouds  
Wind Chill: 82°   Ceiling: 8000
Heat Index: 82°   Visibility: 6mi
Dew Point: 59°   Wind: 8mph
Humidity: 45%   Direction: 50°NE
Pressure: 29.91"   Gusts: NA
Location:  19.06°S, 42.72°W
Report Text: SBIP 261400Z 05007KT 9999 FEW025 SCT050 BKN080 28/15 Q1013
Loading
Personal Weather Stations






























Interactive Weather Map New forecast layout! Learn more

10-Day Weather Forecast

Advertisements
Track Severe Weather on mobile